Yamachiche, Canada
Current Conditions -  °F | °C
As of 5:00 PM on Tuesday 21 Oct 2014 (Local Time) from CYRQ Reporting Station
Overcast Overcast  
Wind Chill: 41°   Ceiling: 11000
Heat Index: 46°   Visibility: 9mi
Dew Point: 36°   Wind: 10mph
Humidity: 66%   Direction: 40°NE
Pressure: 30.12"   Gusts: NA
Location:  46.28°N, 72.83°W
Report Text: CYRQ 212100Z AUTO 04009KT 9SM FEW085 OVC110 08/02 A3012 RMK SLP203
Loading
Personal Weather Stations






























Interactive Weather Map
Tropical Storm Tracking
New forecast layout! Learn more

10-Day Weather Forecast

Advertisements
Track Severe Weather on mobile